Time;durP1;ratioP1;P1;durP2;ratioP2;P2;SDS_P1;SDS_P2;PMS_P1;PMS_P2;Temp;Humidity;BMP_temperature;BMP_pressure;BME280_temperature;BME280_humidity;BME280_pressure;Samples;Min_cycle;Max_cycle;Signal;HPM_P1;HPM_P2
2024/01/04 00:00:35;;;;;;;2.45;1.70;;;;;;;10.00;57.64;94198.09;5076806;28;20299;-72
2024/01/04 00:03:02;;;;;;;1.75;1.65;;;;;;;10.02;57.76;94200.47;5060227;28;20640;-72
2024/01/04 00:05:31;;;;;;;1.67;1.58;;;;;;;10.02;57.77;94192.19;5061100;28;20266;-71
2024/01/04 00:08:01;;;;;;;1.67;1.58;;;;;;;10.00;57.64;94198.09;5077292;28;20208;-70
2024/01/04 00:10:28;;;;;;;2.83;1.73;;;;;;;10.01;57.70;94198.88;5077469;28;20596;-70
2024/01/04 00:13:01;;;;;;;1.60;1.50;;;;;;;9.97;57.87;94190.56;5060708;28;20275;-70
2024/01/04 00:15:29;;;;;;;1.60;1.50;;;;;;;9.94;57.69;94194.03;5077213;28;20205;-70
2024/01/04 00:17:58;;;;;;;1.70;1.60;;;;;;;9.95;57.91;94184.63;5077886;28;20181;-70
2024/01/04 00:20:27;;;;;;;1.50;1.17;;;;;;;9.96;58.13;94180.72;5060273;28;20207;-70
2024/01/04 00:22:55;;;;;;;1.63;1.52;;;;;;;9.96;57.74;94171.66;5078159;28;20291;-71
2024/01/04 00:25:22;;;;;;;1.40;1.30;;;;;;;9.98;57.85;94177.56;5078228;28;20244;-71
2024/01/04 00:27:49;;;;;;;1.58;1.48;;;;;;;9.97;57.86;94192.53;5054805;28;20229;-71
2024/01/04 00:30:18;;;;;;;1.77;1.40;;;;;;;9.98;58.03;94185.84;5057076;28;20209;-71
2024/01/04 00:32:47;;;;;;;1.40;1.30;;;;;;;9.97;57.89;94187.00;5056496;28;20208;-71
2024/01/04 00:35:14;;;;;;;1.42;1.33;;;;;;;9.94;57.84;94166.50;5039798;28;20671;-71
2024/01/04 00:37:41;;;;;;;1.90;1.42;;;;;;;9.95;57.84;94178.31;5039711;28;20220;-71
2024/01/04 00:40:10;;;;;;;1.50;1.40;;;;;;;9.98;57.85;94172.84;5039844;28;20194;-71
2024/01/04 00:42:37;;;;;;;1.67;1.50;;;;;;;10.00;57.87;94184.31;5056879;28;20297;-71
2024/01/04 00:45:08;;;;;;;2.28;1.52;;;;;;;10.02;57.84;94186.69;5056756;28;20194;-71
2024/01/04 00:47:36;;;;;;;1.40;1.30;;;;;;;10.04;57.80;94179.66;5039630;28;20252;-71
2024/01/04 00:50:05;;;;;;;1.38;1.23;;;;;;;10.07;57.57;94178.13;5040014;28;20209;-69
2024/01/04 00:52:32;;;;;;;1.50;1.40;;;;;;;10.08;57.61;94174.19;5039683;28;20263;-69
2024/01/04 00:54:59;;;;;;;1.83;1.50;;;;;;;10.08;57.68;94188.75;5040086;28;20205;-69
2024/01/04 00:57:26;;;;;;;1.45;1.30;;;;;;;10.10;57.54;94193.91;5056231;28;20202;-69
2024/01/04 00:59:53;;;;;;;1.77;1.30;;;;;;;10.10;57.50;94191.16;5040449;28;20201;-70
2024/01/04 01:02:21;;;;;;;1.60;1.50;;;;;;;10.11;57.25;94201.00;5039890;28;20579;-70
2024/01/04 01:04:52;;;;;;;1.60;1.38;;;;;;;10.10;57.13;94202.97;5056678;28;20263;-70
2024/01/04 01:07:20;;;;;;;6.43;5.85;;;;;;;10.01;58.21;94207.13;5056253;28;20210;-69
2024/01/04 01:09:47;;;;;;;8.48;7.68;;;;;;;9.58;59.56;94193.47;5056884;28;20193;-69
2024/01/04 01:12:15;;;;;;;8.30;7.47;;;;;;;9.15;61.03;94197.44;5056520;28;20190;-69
2024/01/04 01:14:44;;;;;;;8.50;7.57;;;;;;;8.80;62.42;94203.84;5039628;28;20202;-69
2024/01/04 01:17:14;;;;;;;8.93;8.05;;;;;;;8.54;63.55;94207.25;5040081;28;20194;-69
2024/01/04 01:19:41;;;;;;;8.95;8.10;;;;;;;8.34;64.84;94198.16;5055541;28;20190;-69
2024/01/04 01:22:10;;;;;;;8.50;7.70;;;;;;;8.27;65.37;94198.00;5039795;28;20259;-69
2024/01/04 01:24:37;;;;;;;9.20;8.30;;;;;;;8.19;65.82;94201.75;5055982;28;20197;-69
2024/01/04 01:27:06;;;;;;;8.63;7.72;;;;;;;8.12;66.66;94207.06;5057222;28;20220;-69
2024/01/04 01:29:33;;;;;;;8.45;7.65;;;;;;;8.04;67.17;94213.56;5056791;28;20231;-69
2024/01/04 01:32:01;;;;;;;8.25;7.50;;;;;;;7.93;67.48;94205.09;5055674;28;20189;-70
2024/01/04 01:34:31;;;;;;;8.57;7.75;;;;;;;7.91;67.96;94207.38;5039561;28;20205;-69
2024/01/04 01:36:58;;;;;;;8.15;7.35;;;;;;;7.88;68.32;94203.41;5056477;28;20181;-70
2024/01/04 01:39:27;;;;;;;8.45;7.75;;;;;;;7.88;68.40;94202.59;5038837;28;20205;-70
2024/01/04 01:41:55;;;;;;;8.15;7.43;;;;;;;7.88;68.70;94208.09;5055911;28;20230;-70
2024/01/04 01:44:22;;;;;;;7.40;6.68;;;;;;;7.86;68.65;94208.44;5055489;28;20259;-70
2024/01/04 01:46:49;;;;;;;7.10;6.38;;;;;;;7.80;69.03;94201.63;5056282;28;20263;-70
2024/01/04 01:49:17;;;;;;;7.38;6.63;;;;;;;7.78;69.13;94201.22;5055232;28;20201;-70
2024/01/04 01:51:44;;;;;;;7.47;6.72;;;;;;;7.78;69.70;94227.88;5054867;28;20240;-69
2024/01/04 01:54:12;;;;;;;7.10;6.35;;;;;;;7.78;69.59;94220.41;5038372;28;20247;-69
2024/01/04 01:56:40;;;;;;;6.88;6.22;;;;;;;7.77;69.77;94218.00;5038581;28;20197;-70
2024/01/04 01:59:08;;;;;;;6.28;5.78;;;;;;;7.77;69.60;94220.75;5039264;28;20197;-70
2024/01/04 02:01:37;;;;;;;7.07;6.20;;;;;;;7.75;69.85;94209.34;5055127;28;20616;-69
2024/01/04 02:04:05;;;;;;;8.20;6.57;;;;;;;7.68;69.68;94213.50;5037999;28;20217;-69
2024/01/04 02:06:32;;;;;;;7.18;6.47;;;;;;;7.63;69.94;94216.53;5054915;28;20225;-69
2024/01/04 02:09:01;;;;;;;7.20;6.50;;;;;;;7.58;70.40;94225.03;5038601;28;20224;-70
2024/01/04 02:11:28;;;;;;;6.95;6.35;;;;;;;7.54;70.14;94226.09;5054872;28;20224;-71
2024/01/04 02:13:57;;;;;;;7.22;6.40;;;;;;;7.48;69.97;94217.34;5038830;28;20236;-71
2024/01/04 02:16:25;;;;;;;7.47;6.78;;;;;;;7.42;70.35;94214.06;5055174;28;20247;-71
2024/01/04 02:18:53;;;;;;;7.00;6.35;;;;;;;7.41;70.67;94212.47;5055593;28;20528;-71
2024/01/04 02:21:22;;;;;;;7.38;6.72;;;;;;;7.38;70.83;94217.88;5038272;28;20205;-70
2024/01/04 02:23:54;;;;;;;7.25;6.50;;;;;;;7.38;71.04;94218.66;5038492;28;20252;-71
2024/01/04 02:26:23;;;;;;;7.47;6.78;;;;;;;7.34;70.87;94212.28;5038251;28;20292;-70
2024/01/04 02:28:51;;;;;;;7.47;6.78;;;;;;;7.30;70.81;94205.91;5030429;28;20309;-71
2024/01/04 02:31:18;;;;;;;7.68;6.88;;;;;;;7.30;70.85;94196.88;5018259;28;20190;-70
2024/01/04 02:33:45;;;;;;;7.93;7.18;;;;;;;7.28;71.11;94197.22;5051173;28;20209;-69
2024/01/04 02:36:15;;;;;;;7.60;6.82;;;;;;;7.20;70.92;94184.50;5035584;28;20182;-69
2024/01/04 02:38:43;;;;;;;7.32;6.63;;;;;;;7.20;71.20;94171.56;5035775;28;20191;-69
2024/01/04 02:41:13;;;;;;;6.97;6.32;;;;;;;7.14;71.39;94175.72;5051717;28;20261;-69
2024/01/04 02:43:40;;;;;;;7.35;6.65;;;;;;;7.08;71.31;94171.66;5034886;28;20195;-69
2024/01/04 02:46:07;;;;;;;6.85;6.15;;;;;;;7.05;71.60;94175.09;5034892;28;20210;-69
2024/01/04 02:48:36;;;;;;;6.95;6.35;;;;;;;7.03;71.52;94177.38;5035035;28;20229;-69
2024/01/04 02:51:07;;;;;;;6.93;6.30;;;;;;;7.04;71.76;94164.47;5035183;28;20214;-69
2024/01/04 02:53:36;;;;;;;6.80;6.10;;;;;;;7.05;71.86;94158.66;5018219;28;20226;-69
2024/01/04 02:56:04;;;;;;;7.97;7.28;;;;;;;7.00;72.15;94158.91;5034379;28;20210;-69
2024/01/04 02:58:32;;;;;;;10.00;9.00;;;;;;;6.95;72.40;94159.16;5035158;28;20197;-70
2024/01/04 03:00:59;;;;;;;10.40;9.00;;;;;;;6.89;72.71;94163.31;5050983;28;20248;-69
2024/01/04 03:03:26;;;;;;;9.27;8.40;;;;;;;6.91;72.43;94164.56;5051402;28;20209;-69
2024/01/04 03:05:54;;;;;;;9.63;8.73;;;;;;;6.89;72.69;94166.84;5017797;28;20663;-69
2024/01/04 03:08:20;;;;;;;9.57;8.68;;;;;;;6.90;72.42;94160.22;5035254;28;20183;-69
2024/01/04 03:10:47;;;;;;;10.10;9.10;;;;;;;6.93;72.42;94139.53;5035665;28;20190;-69
2024/01/04 03:13:14;;;;;;;8.85;8.00;;;;;;;6.95;72.14;94149.00;5050499;28;20210;-69
2024/01/04 03:15:43;;;;;;;9.05;8.20;;;;;;;6.94;72.01;94149.34;5053421;28;20214;-69
2024/01/04 03:18:10;;;;;;;9.38;8.43;;;;;;;6.91;72.11;94147.31;5054723;28;20209;-69
2024/01/04 03:20:37;;;;;;;8.40;7.60;;;;;;;6.90;72.24;94140.22;5055050;28;20194;-69
2024/01/04 03:23:05;;;;;;;7.68;6.93;;;;;;;6.84;72.84;94144.38;5038844;28;20179;-69
2024/01/04 03:25:32;;;;;;;7.70;6.90;;;;;;;6.89;72.41;94147.66;5039218;28;20182;-69
2024/01/04 03:27:59;;;;;;;7.07;6.47;;;;;;;6.91;72.30;94148.09;5033832;28;20258;-69
2024/01/04 03:30:26;;;;;;;7.15;6.45;;;;;;;6.88;72.47;94142.53;5019075;28;20199;-69
2024/01/04 03:32:54;;;;;;;7.03;6.32;;;;;;;6.90;72.15;94149.25;5018595;28;20207;-69
2024/01/04 03:35:21;;;;;;;6.43;5.82;;;;;;;6.89;72.58;94135.91;5017814;28;20226;-69
2024/01/04 03:37:48;;;;;;;6.28;5.68;;;;;;;6.89;72.33;94131.19;5018888;28;20179;-69
2024/01/04 03:40:16;;;;;;;5.72;5.20;;;;;;;6.89;72.41;94135.91;5018873;28;20191;-70
2024/01/04 03:42:42;;;;;;;5.97;5.45;;;;;;;6.87;72.12;94132.72;5018624;28;20661;-69
2024/01/04 03:45:10;;;;;;;5.80;5.30;;;;;;;6.82;72.56;94122.00;5018765;28;20238;-69
2024/01/04 03:47:37;;;;;;;6.80;6.20;;;;;;;6.79;72.76;94119.97;5018482;28;20221;-69
2024/01/04 03:50:07;;;;;;;6.38;5.78;;;;;;;6.77;72.71;94127.75;5018944;28;20246;-69
2024/01/04 03:52:34;;;;;;;6.80;6.20;;;;;;;6.72;72.29;94128.81;5001796;28;20266;-69
2024/01/04 03:55:01;;;;;;;6.50;5.90;;;;;;;6.70;72.50;94128.34;5018670;28;20195;-69
2024/01/04 03:57:29;;;;;;;6.53;5.93;;;;;;;6.64;72.69;94133.28;5018350;28;20258;-69
2024/01/04 03:59:55;;;;;;;6.30;5.68;;;;;;;6.61;72.96;94142.22;5018665;28;20230;-69
2024/01/04 04:02:22;;;;;;;7.68;6.20;;;;;;;6.60;73.32;94139.81;5017993;28;20307;-69
2024/01/04 04:04:50;;;;;;;6.35;5.75;;;;;;;6.58;73.41;94125.69;5017841;28;20199;-69
2024/01/04 04:07:18;;;;;;;6.60;6.00;;;;;;;6.54;73.56;94141.25;5018073;28;20262;-69
2024/01/04 04:09:45;;;;;;;6.85;6.25;;;;;;;6.49;73.11;94142.28;5018693;28;20211;-69
2024/01/04 04:12:12;;;;;;;9.60;8.70;;;;;;;6.46;73.42;94123.78;5018205;28;20518;-69
2024/01/04 04:14:39;;;;;;;7.55;6.85;;;;;;;6.47;73.44;94136.34;5017020;28;20227;-70
2024/01/04 04:17:06;;;;;;;6.57;5.97;;;;;;;6.46;73.58;94143.78;5017163;28;20238;-70
2024/01/04 04:19:33;;;;;;;7.18;6.47;;;;;;;6.48;73.48;94137.94;5017815;28;20207;-70
2024/01/04 04:22:00;;;;;;;6.72;6.13;;;;;;;6.49;73.77;94139.53;5001010;28;20246;-70
2024/01/04 04:24:30;;;;;;;7.28;6.57;;;;;;;6.47;74.02;94128.13;5017446;28;20536;-69
2024/01/04 04:26:57;;;;;;;7.30;6.60;;;;;;;6.38;73.58;94132.97;5000560;28;20222;-69
2024/01/04 04:29:24;;;;;;;7.22;6.53;;;;;;;6.27;73.67;94121.72;5053795;28;20322;-71
2024/01/04 04:31:51;;;;;;;6.65;5.85;;;;;;;6.25;74.13;94129.50;5057892;28;20182;-68
2024/01/04 04:34:18;;;;;;;7.00;6.40;;;;;;;6.27;74.51;94127.19;5057711;28;20186;-69
2024/01/04 04:36:45;;;;;;;6.35;5.75;;;;;;;6.31;74.60;94133.56;5058257;28;20224;-68
2024/01/04 04:39:12;;;;;;;6.28;5.78;;;;;;;6.30;74.39;94136.66;5039970;28;20190;-69
2024/01/04 04:41:42;;;;;;;7.22;6.50;;;;;;;6.31;74.46;94135.50;5057252;28;20255;-68
2024/01/04 04:44:09;;;;;;;7.75;7.03;;;;;;;6.26;74.31;94131.88;5057344;28;20253;-69
2024/01/04 04:46:36;;;;;;;6.88;6.38;;;;;;;6.24;74.34;94145.09;5040108;28;20251;-68
2024/01/04 04:49:03;;;;;;;7.70;7.10;;;;;;;6.11;74.32;94143.56;5057136;28;20609;-68
2024/01/04 04:51:30;;;;;;;8.13;7.43;;;;;;;6.03;74.28;94134.34;5056468;28;20221;-68
2024/01/04 04:53:58;;;;;;;12.85;11.63;;;;;;;5.98;74.58;94131.84;5057301;28;20185;-68
2024/01/04 04:56:25;;;;;;;9.55;8.68;;;;;;;5.91;74.97;94149.97;5056898;28;20190;-68
2024/01/04 04:58:53;;;;;;;7.72;7.13;;;;;;;5.98;74.99;94136.53;5040345;28;20233;-69
2024/01/04 05:01:20;;;;;;;8.05;7.38;;;;;;;6.00;75.22;94134.25;5057216;28;20197;-69
2024/01/04 05:03:47;;;;;;;7.68;6.88;;;;;;;6.01;75.19;94135.84;5056773;28;20193;-68
2024/01/04 05:06:14;;;;;;;7.22;6.65;;;;;;;6.05;75.73;94141.41;5039833;28;20290;-68
2024/01/04 05:08:41;;;;;;;7.38;6.68;;;;;;;6.06;75.65;94160.22;5039964;28;20236;-68
2024/01/04 05:11:09;;;;;;;7.75;6.95;;;;;;;6.06;75.50;94132.03;5040231;28;20198;-68
2024/01/04 05:13:36;;;;;;;8.32;7.63;;;;;;;6.03;75.32;94169.16;5056562;28;20276;-68
2024/01/04 05:16:05;;;;;;;8.68;7.80;;;;;;;6.01;75.59;94165.94;5056884;28;20571;-69
2024/01/04 05:18:32;;;;;;;7.97;7.20;;;;;;;6.05;75.49;94172.31;5056955;28;20260;-69
2024/01/04 05:20:59;;;;;;;7.75;7.05;;;;;;;6.05;75.53;94160.56;5039261;28;20205;-69
2024/01/04 05:23:26;;;;;;;7.55;6.85;;;;;;;6.05;75.69;94164.09;5056426;28;20189;-69
2024/01/04 05:25:53;;;;;;;8.18;7.38;;;;;;;6.03;74.97;94167.19;5056383;28;20319;-69
2024/01/04 05:28:20;;;;;;;8.13;7.30;;;;;;;5.88;74.85;94159.69;5038771;28;20237;-69
2024/01/04 05:30:47;;;;;;;9.80;8.90;;;;;;;5.72;74.76;94159.56;5057063;28;20197;-69
2024/01/04 05:33:16;;;;;;;9.13;8.35;;;;;;;5.67;75.22;94157.09;5056214;28;20232;-69
2024/01/04 05:35:44;;;;;;;7.63;7.03;;;;;;;5.75;75.79;94156.16;5039578;28;20201;-69
2024/01/04 05:38:11;;;;;;;7.95;7.20;;;;;;;5.81;76.08;94154.00;5055992;28;20198;-69
2024/01/04 05:40:38;;;;;;;7.65;7.03;;;;;;;5.86;76.12;94164.69;5055442;28;20240;-69
2024/01/04 05:43:06;;;;;;;7.60;6.90;;;;;;;5.89;76.00;94155.00;5056192;28;20197;-70
2024/01/04 05:45:33;;;;;;;7.78;7.07;;;;;;;5.83;76.08;94162.63;5039065;28;20294;-70
2024/01/04 05:48:00;;;;;;;7.35;6.65;;;;;;;5.79;75.52;94145.31;5055249;28;20217;-70
2024/01/04 05:50:28;;;;;;;7.40;6.70;;;;;;;5.69;75.44;94152.06;5056414;28;20244;-70
2024/01/04 05:52:55;;;;;;;8.45;7.60;;;;;;;5.74;76.28;94151.03;5056004;28;20190;-70
2024/01/04 05:55:22;;;;;;;8.90;8.07;;;;;;;5.80;76.64;94163.31;5056640;28;20268;-72
2024/01/04 05:57:49;;;;;;;8.88;7.97;;;;;;;5.85;76.47;94162.31;5055756;28;20194;-70
2024/01/04 06:00:17;;;;;;;8.52;7.82;;;;;;;5.81;75.98;94164.94;5055230;28;20202;-70
2024/01/04 06:02:44;;;;;;;9.02;7.90;;;;;;;5.79;76.38;94162.53;5055060;28;20247;-70
2024/01/04 06:05:11;;;;;;;8.15;7.38;;;;;;;5.84;76.21;94157.97;5055985;28;20186;-70
2024/01/04 06:07:41;;;;;;;8.75;7.93;;;;;;;5.83;76.41;94159.09;5056243;28;20279;-70
2024/01/04 06:10:08;;;;;;;10.15;9.07;;;;;;;5.83;76.44;94170.84;5055243;28;20210;-70
2024/01/04 06:12:35;;;;;;;10.13;9.07;;;;;;;5.83;76.29;94172.78;5054621;28;20213;-70
2024/01/04 06:15:03;;;;;;;9.57;8.70;;;;;;;5.89;76.49;94171.41;5038812;28;20202;-69
2024/01/04 06:17:30;;;;;;;10.77;9.10;;;;;;;5.99;76.17;94182.72;5038118;28;20194;-70
2024/01/04 06:19:57;;;;;;;11.25;7.45;;;;;;;6.08;76.10;94163.41;5038003;28;20644;-70
2024/01/04 06:22:24;;;;;;;9.38;7.32;;;;;;;6.19;76.01;94169.22;5038415;28;20220;-70
2024/01/04 06:24:53;;;;;;;7.13;6.43;;;;;;;6.30;75.83;94169.50;5055838;28;20209;-72
2024/01/04 06:27:19;;;;;;;6.20;5.60;;;;;;;6.39;75.57;94157.28;5054791;28;20218;-72
2024/01/04 06:29:45;;;;;;;6.40;5.80;;;;;;;6.46;75.29;94168.44;5075375;28;20242;-73
2024/01/04 06:32:12;;;;;;;6.20;5.60;;;;;;;6.53;74.69;94154.13;5075870;28;20220;-70
2024/01/04 06:34:39;;;;;;;6.25;5.65;;;;;;;6.57;74.81;94155.00;5074683;28;20190;-72
2024/01/04 06:37:06;;;;;;;7.45;5.97;;;;;;;6.61;74.55;94161.41;5057744;28;20200;-71
2024/01/04 06:39:33;;;;;;;5.78;5.28;;;;;;;6.68;74.36;94169.81;5057726;28;20242;-72
2024/01/04 06:42:04;;;;;;;6.95;5.55;;;;;;;6.77;74.26;94168.88;5075258;28;20193;-73
2024/01/04 06:44:32;;;;;;;5.78;5.18;;;;;;;6.85;74.25;94167.91;5075052;28;20193;-69
2024/01/04 06:47:00;;;;;;;6.55;5.95;;;;;;;6.92;73.84;94177.09;5075174;28;20285;-73
2024/01/04 06:49:26;;;;;;;6.00;5.47;;;;;;;7.00;73.38;94153.41;5058202;28;20211;-69
2024/01/04 06:51:55;;;;;;;6.65;5.97;;;;;;;7.04;73.02;94162.53;5075132;28;20234;-69
2024/01/04 06:54:22;;;;;;;6.50;5.90;;;;;;;7.05;72.58;94157.88;5075605;28;20195;-69
2024/01/04 06:56:49;;;;;;;6.93;6.22;;;;;;;7.07;72.77;94147.31;5058427;28;20246;-67
2024/01/04 06:59:17;;;;;;;7.05;6.45;;;;;;;7.11;73.37;94165.44;5058437;28;20189;-69
2024/01/04 07:01:44;;;;;;;6.45;5.85;;;;;;;7.19;73.19;94156.28;5074581;28;20220;-69
2024/01/04 07:04:11;;;;;;;7.78;7.05;;;;;;;7.23;72.85;94170.88;5057780;28;20600;-69
2024/01/04 07:06:39;;;;;;;9.85;9.05;;;;;;;7.25;72.53;94167.75;5074305;28;20666;-69
2024/01/04 07:09:06;;;;;;;9.10;8.00;;;;;;;7.33;72.79;94179.72;5057653;28;20220;-71
2024/01/04 07:11:33;;;;;;;7.28;6.60;;;;;;;7.40;72.42;94177.13;5058368;28;20193;-70
2024/01/04 07:14:00;;;;;;;7.90;6.75;;;;;;;7.47;72.04;94188.28;5075085;28;20262;-68
2024/01/04 07:16:29;;;;;;;7.03;6.43;;;;;;;7.52;71.53;94182.56;5074697;28;20535;-70
2024/01/04 07:18:56;;;;;;;6.93;6.20;;;;;;;7.55;71.78;94181.81;5058225;28;20193;-69
2024/01/04 07:21:23;;;;;;;7.28;6.20;;;;;;;7.60;71.24;94184.31;5073782;28;20197;-69
2024/01/04 07:23:50;;;;;;;7.32;6.63;;;;;;;7.62;71.23;94187.47;5074018;28;20239;-69
2024/01/04 07:26:17;;;;;;;7.32;6.57;;;;;;;7.66;71.22;94179.34;5057577;28;20254;-69
2024/01/04 07:28:44;;;;;;;7.80;6.00;;;;;;;7.70;71.07;94192.00;5057050;28;20228;-73
2024/01/04 07:31:11;;;;;;;6.82;6.15;;;;;;;7.74;70.69;94153.66;5057531;28;20585;-74
2024/01/04 07:33:39;;;;;;;6.50;5.90;;;;;;;7.78;70.91;94145.50;5075183;28;20185;-70
2024/01/04 07:36:07;;;;;;;6.97;6.13;;;;;;;7.79;70.50;94150.63;5056978;28;20209;-73
2024/01/04 07:38:34;;;;;;;6.22;5.32;;;;;;;7.82;70.58;94129.91;5074200;28;20628;-71
2024/01/04 07:41:02;;;;;;;6.10;5.50;;;;;;;7.87;70.64;94135.13;5074852;28;20181;-71
2024/01/04 07:43:29;;;;;;;5.90;5.40;;;;;;;7.90;70.25;94126.97;5056675;28;20201;-73
2024/01/04 07:45:56;;;;;;;6.85;5.47;;;;;;;7.93;70.07;94122.72;5057465;28;20619;-71
2024/01/04 07:48:25;;;;;;;5.97;5.38;;;;;;;7.96;69.90;94111.00;5057977;28;20225;-74
2024/01/04 07:50:55;;;;;;;8.85;5.80;;;;;;;8.03;69.62;94115.88;5073727;28;20209;-73
2024/01/04 07:53:22;;;;;;;5.85;5.10;;;;;;;8.09;69.68;94117.94;5074504;28;20185;-72
2024/01/04 07:55:49;;;;;;;6.80;5.68;;;;;;;8.15;69.52;94116.50;5075447;28;20255;-72
2024/01/04 07:58:16;;;;;;;6.05;5.07;;;;;;;8.20;69.47;94098.94;5074665;28;20225;-73
2024/01/04 08:00:43;;;;;;;6.03;5.50;;;;;;;8.22;69.33;94085.66;5057776;28;20624;-74
2024/01/04 08:03:10;;;;;;;5.03;4.63;;;;;;;8.26;69.01;94070.03;5060968;28;20197;-75
2024/01/04 08:05:37;;;;;;;5.65;4.95;;;;;;;8.27;69.42;94071.63;5078386;28;20193;-76
2024/01/04 08:08:08;;;;;;;5.88;5.28;;;;;;;8.32;69.15;94076.84;5060604;28;20273;-74
2024/01/04 08:10:36;;;;;;;5.85;5.35;;;;;;;8.36;69.41;94074.16;5077376;28;20196;-74
2024/01/04 08:13:03;;;;;;;7.30;6.70;;;;;;;8.42;69.55;94073.53;5060869;28;20528;-75
2024/01/04 08:15:33;;;;;;;8.93;7.80;;;;;;;8.46;69.24;94089.28;5077257;28;20251;-71
2024/01/04 08:18:02;;;;;;;10.07;8.85;;;;;;;8.48;69.08;94070.47;5060490;28;20201;-76
2024/01/04 08:20:29;;;;;;;11.38;9.25;;;;;;;8.49;69.40;94091.31;5078612;28;20285;-76
2024/01/04 08:22:56;;;;;;;12.93;10.05;;;;;;;8.47;69.58;94071.66;5078133;28;20576;-76
2024/01/04 08:25:25;;;;;;;11.32;9.68;;;;;;;8.47;69.41;94093.63;5077704;28;20204;-71
2024/01/04 08:27:52;;;;;;;12.70;10.68;;;;;;;8.52;68.80;94093.31;5078097;28;20302;-79
2024/01/04 08:30:19;;;;;;;13.82;12.43;;;;;;;8.56;68.67;94100.47;5064280;28;20201;-80
2024/01/04 08:32:47;;;;;;;14.07;12.68;;;;;;;8.62;68.94;94104.53;5079550;28;20181;-79
2024/01/04 08:35:17;;;;;;;14.60;13.10;;;;;;;8.70;68.64;94086.22;5063129;28;20194;-79
2024/01/04 08:37:45;;;;;;;14.63;13.10;;;;;;;8.67;68.21;94087.72;5062300;28;20201;-70
2024/01/04 08:40:12;;;;;;;14.43;12.93;;;;;;;8.66;68.39;94079.84;5077860;28;20420;-78
2024/01/04 08:42:41;;;;;;;13.73;12.32;;;;;;;8.69;68.32;94087.38;5078242;28;20224;-77
2024/01/04 08:45:09;;;;;;;16.85;15.15;;;;;;;8.75;68.39;94071.34;5060385;28;20197;-77
2024/01/04 08:47:36;;;;;;;16.10;14.38;;;;;;;8.86;68.35;94081.41;5077869;28;20627;-72
2024/01/04 08:50:03;;;;;;;14.65;13.15;;;;;;;8.92;68.35;94071.69;5077302;28;20254;-72
2024/01/04 08:52:30;;;;;;;14.70;13.13;;;;;;;9.08;68.12;94062.53;5059763;28;20200;-72
2024/01/04 08:54:57;;;;;;;14.15;12.70;;;;;;;9.23;67.81;94066.31;5060204;28;20197;-72
2024/01/04 08:57:26;;;;;;;13.18;11.88;;;;;;;9.42;67.59;94062.66;5076782;28;20197;-69
2024/01/04 08:59:54;;;;;;;12.35;11.18;;;;;;;9.55;66.98;94067.59;5059327;28;20201;-72
2024/01/04 09:02:21;;;;;;;11.02;8.02;;;;;;;9.63;65.88;94079.50;5059578;28;20204;-73
2024/01/04 09:04:49;;;;;;;9.93;7.90;;;;;;;9.65;65.51;94066.16;5060286;28;20209;-72
2024/01/04 09:07:18;;;;;;;9.00;8.10;;;;;;;9.64;65.38;94059.06;5076911;28;20178;-70
2024/01/04 09:09:45;;;;;;;9.10;8.18;;;;;;;9.67;65.05;94055.56;5059701;28;20244;-73
2024/01/04 09:12:13;;;;;;;11.35;9.25;;;;;;;9.64;64.86;94045.28;5058854;28;20254;-72
2024/01/04 09:14:40;;;;;;;15.35;11.13;;;;;;;9.50;64.88;94050.59;5076059;28;20189;-72
2024/01/04 09:17:08;;;;;;;14.98;11.95;;;;;;;9.43;65.06;94031.22;5060220;28;20236;-72
2024/01/04 09:19:36;;;;;;;13.50;11.32;;;;;;;9.39;65.07;94042.97;5076890;28;20182;-72
2024/01/04 09:22:04;;;;;;;12.27;10.85;;;;;;;9.36;64.90;94038.19;5059276;28;20195;-72
2024/01/04 09:24:33;;;;;;;12.82;11.52;;;;;;;9.46;65.43;94045.03;5058979;28;20689;-72
2024/01/04 09:27:00;;;;;;;15.18;13.63;;;;;;;9.63;65.36;94041.75;5077055;28;20181;-72
2024/01/04 09:29:27;;;;;;;16.45;14.75;;;;;;;9.83;64.64;94030.59;5058932;28;20236;-73
2024/01/04 09:31:55;;;;;;;16.95;15.30;;;;;;;10.07;64.48;94029.34;5058772;28;20239;-73
2024/01/04 09:34:24;;;;;;;18.23;15.85;;;;;;;10.35;63.91;94015.16;5076218;28;20185;-73
2024/01/04 09:36:51;;;;;;;15.20;13.60;;;;;;;10.57;63.50;94013.41;5059512;28;20196;-73
2024/01/04 09:39:19;;;;;;;16.95;15.13;;;;;;;10.71;62.03;94013.56;5059674;28;20197;-73
2024/01/04 09:41:48;;;;;;;17.98;13.85;;;;;;;10.85;62.31;94012.88;5076331;28;20212;-72
2024/01/04 09:44:16;;;;;;;16.50;10.95;;;;;;;11.08;60.35;94002.44;5076405;28;20226;-72
2024/01/04 09:46:43;;;;;;;11.57;10.15;;;;;;;11.35;61.29;93993.97;5059281;28;20251;-73
2024/01/04 09:49:11;;;;;;;10.35;8.07;;;;;;;11.67;60.25;93999.69;5075956;28;20228;-72
2024/01/04 09:51:42;;;;;;;9.55;7.25;;;;;;;11.86;57.99;93993.09;5076550;28;20200;-72
2024/01/04 09:54:10;;;;;;;9.20;6.63;;;;;;;12.01;58.18;93978.19;5075962;28;20243;-72
2024/01/04 09:56:40;;;;;;;9.15;7.55;;;;;;;12.15;58.38;93980.22;5058884;28;20254;-73
2024/01/04 09:59:08;;;;;;;10.25;8.10;;;;;;;12.29;57.29;93985.78;5075826;28;20230;-74
2024/01/04 10:01:36;;;;;;;11.00;9.60;;;;;;;12.44;56.92;93975.56;5076279;28;20205;-69
2024/01/04 10:04:06;;;;;;;10.98;9.00;;;;;;;12.50;55.94;93982.31;5075697;28;20223;-69
2024/01/04 10:06:35;;;;;;;8.48;7.65;;;;;;;12.50;55.28;93962.94;5076094;28;20227;-69
2024/01/04 10:09:14;;;;;;;8.25;7.03;;;;;;;12.02;55.67;93965.16;5076033;28;20240;-69
2024/01/04 10:11:45;;;;;;;7.47;6.72;;;;;;;11.99;56.17;93955.69;5058233;28;20209;-69
2024/01/04 10:14:12;;;;;;;8.07;6.47;;;;;;;12.18;56.19;93940.72;5058067;28;20217;-68
2024/01/04 10:16:40;;;;;;;9.27;6.05;;;;;;;12.28;55.16;93939.19;5058699;28;20193;-69
2024/01/04 10:19:07;;;;;;;8.65;5.78;;;;;;;12.17;55.85;93938.38;5058375;28;20266;-67
2024/01/04 10:21:34;;;;;;;8.23;6.18;;;;;;;12.26;55.50;93936.00;5058360;28;20182;-67
2024/01/04 10:24:03;;;;;;;8.60;5.55;;;;;;;12.40;55.23;93913.13;5058180;28;20209;-68
2024/01/04 10:26:30;;;;;;;6.35;5.38;;;;;;;12.31;55.02;93905.25;5057820;28;20697;-68
2024/01/04 10:28:59;;;;;;;6.90;5.72;;;;;;;12.22;54.98;93904.81;5072298;28;20294;-67
2024/01/04 10:31:26;;;;;;;6.63;5.90;;;;;;;12.19;56.21;93909.13;5058026;28;20188;-68
2024/01/04 10:33:57;;;;;;;8.32;7.45;;;;;;;12.17;56.42;93905.19;5058166;28;20265;-73
2024/01/04 10:36:28;;;;;;;10.20;8.65;;;;;;;12.12;56.24;93900.81;5058467;28;20204;-74
2024/01/04 10:38:56;;;;;;;9.35;8.40;;;;;;;12.10;56.38;93881.09;5057908;28;20200;-77
2024/01/04 10:41:25;;;;;;;12.90;8.32;;;;;;;12.07;56.33;93886.63;5057676;28;20280;-79
2024/01/04 10:43:52;;;;;;;11.80;9.57;;;;;;;11.99;56.51;93872.78;5075029;28;20228;-71
2024/01/04 10:46:19;;;;;;;13.05;10.27;;;;;;;11.89;56.40;93865.25;5058090;28;20188;-71
2024/01/04 10:48:46;;;;;;;15.13;13.55;;;;;;;11.84;56.55;93873.94;5075307;28;20204;-75
2024/01/04 10:51:15;;;;;;;13.57;12.00;;;;;;;11.83;56.56;93869.53;5074189;28;20624;-73
2024/01/04 10:53:43;;;;;;;13.23;11.10;;;;;;;11.84;56.92;93867.59;5058010;28;20201;-71
2024/01/04 10:56:10;;;;;;;13.18;9.60;;;;;;;11.87;56.69;93872.34;5058225;28;20255;-77
2024/01/04 10:58:40;;;;;;;9.88;8.50;;;;;;;11.79;56.25;93864.00;5057996;28;20200;-78
2024/01/04 11:01:07;;;;;;;9.63;8.45;;;;;;;11.86;56.33;93868.00;5057822;28;20204;-73
2024/01/04 11:03:34;;;;;;;9.68;8.68;;;;;;;11.93;56.26;93860.50;5057840;28;20193;-76
2024/01/04 11:06:02;;;;;;;7.43;6.13;;;;;;;11.93;56.04;93852.22;5057612;28;20205;-74
2024/01/04 11:08:30;;;;;;;10.90;7.65;;;;;;;12.10;58.70;93845.16;5058359;28;20201;-73
2024/01/04 11:10:58;;;;;;;7.90;6.00;;;;;;;12.38;57.11;93863.78;5057918;28;20224;-74
2024/01/04 11:13:25;;;;;;;3.53;2.30;;;;;;;12.69;50.70;93840.06;5058331;28;20207;-74
2024/01/04 11:15:56;;;;;;;2.50;2.17;;;;;;;12.83;51.62;93811.59;5057790;28;20284;-66
2024/01/04 11:18:37;;;;;;;3.35;2.28;;;;;;;13.02;49.88;93818.66;5058022;28;20185;-65
2024/01/04 11:21:17;;;;;;;2.90;1.92;;;;;;;13.12;50.03;93800.47;5057115;28;20197;-65
2024/01/04 11:24:03;;;;;;;4.80;3.72;;;;;;;13.06;50.36;93838.03;5057517;28;20196;-66
2024/01/04 11:26:38;;;;;;;2.40;2.00;;;;;;;12.97;49.97;93808.81;5057739;28;20271;-65
2024/01/04 11:29:09;;;;;;;3.28;1.40;;;;;;;12.87;49.55;93809.59;5056930;28;20536;-66
2024/01/04 11:31:43;;;;;;;1.42;1.30;;;;;;;12.82;49.58;93807.25;5057502;28;20296;-65
2024/01/04 11:34:12;;;;;;;1.67;1.35;;;;;;;12.91;50.62;93823.44;5057287;28;20209;-66
2024/01/04 11:36:40;;;;;;;2.03;1.30;;;;;;;12.84;50.18;93804.88;5060608;28;20296;-65
2024/01/04 11:39:07;;;;;;;1.60;1.40;;;;;;;13.35;50.08;93803.56;5061969;28;20238;-65